Pitt Meadows, British Columbia

12:01 PM PDT on August 27, 2016 (GMT -0700)
Pitt Meadows Casa de Douglas | | Change Station

Elev 66 ft 49.22 °N, 122.69 °W | Updated 1 minute ago

Mostly Cloudy
Mostly Cloudy
70.2 °F
Feels Like 75 °F
N
4.7
Wind Variable Wind from West

Today
High -- | Low -- °F
--% Chance of Precip.
Yesterday
High -- | Low -- °F
Precip. -- in
Pressure 29.79 in
Visibility 20.0 miles
Clouds Scattered Clouds 7000 ft
Mostly Cloudy 10000 ft
Heat Index 75 °F
Dew Point 58 °F
Humidity 66%
Rainfall 0.00 in
Snow Depth Not available.
6:20 AM 8:02 PM
Waning Crescent, 22% visible
METAR CYXX 271800Z 20016KT 20SM SCT070 BKN100 22/14 A2979 RMK AC3AC3 SLP088 DENSITY ALT 1100FT
Pressure 29.79 in
Visibility 20.0 miles
Clouds Scattered Clouds 7000 ft
Mostly Cloudy 10000 ft
Heat Index 75 °F
Dew Point 58 °F
Humidity 66%
Rainfall 0.00 in
Snow Depth Not available.
6:20 AM 8:02 PM
Waning Crescent, 22% visible
METAR CYXX 271800Z 20016KT 20SM SCT070 BKN100 22/14 A2979 RMK AC3AC3 SLP088 DENSITY ALT 1100FT

10-Day Weather Forecast

Almanac

Astronomy

Aug. 27, 2016 Rise Set
Actual Time
Civil Twilight
Nautical Twilight
Astronomical Twilight
Moon
Length of Visible Light
Length of Day
Tomorrow will be .
, % of the Moon is Illuminated

Today's Extremes

Country Highs Country Lows

Community

WunderPhotos

Upload Photos

1,935,399 photos uploaded!

WunderBlog® & News

Nearby

Air Quality

  Air Quality AQ Index Pollutant
Not available.

Snow Depth

Station Depth Elevation

Earthquake Activity

City Distance Mag. Time & Date
Minimum magnitude displayed is 2.5.

Coastal Water Temperatures

Place Temperature

Stations

Nearby Weather Stations

Station Location Temp. Windchill Dew Point Humidity Wind Precip. Elev Updated Type
                   

Watches & Warnings

There are currently no watches in effect.